Αρχική σελίδα
METAR-TAF:

METAR-TAF

Αεροδρόμια :

Γιβραλτάρ, Γιβραλτάρ

γεωγραφικό πλάτος: 36-09N, γεωγραφικό μήκος: 005-21W, υψόμετρο: 5 μ

Παρών καιρός

Η αναφορά έγινε 1 ώρα και 2 λεπτά πριν, στις 22:50 UTC
Άνεμος 11 kt από BA
Θερμοκρασία 20°C
Υγρασία 88%
Πίεση 1019 hPa
Ορατότητα: 9000 μ

METAR: LXGB 212250Z AUTO 04011KT 9000 // SCT027/// 20/18 Q1019

Χρόνος: 01:52 (23:52 UTC)

Πρόγνωση Καιρού

Η αναφορά έγινε 7 ώρες και 23 λεπτά πριν, στις 16:29 UTC
Η πρόγνωση ισχύει από τις 21 στις 18 UTC έως τις 21 στις 22 UTC
Άνεμος 10 kt από Α/BA
Ορατότητα 10 χλμ και άνω
Διάσπαρτα νέφη σε ύψος 3000 πόδια
Πιθανότητα 40% :
Προσωρινά
από 21 στις 18 UTC έως τις 21 στις 22 UTC
Ορατότητα: 4000 μ
Διάσπαρτα νέφη σε ύψος 1800 πόδια, Σωρείτες καθέτου αναπτύξεως.
Όμβροι

TAF: LXGB 211629Z 2118/2122 07010KT 9999 SCT030 PROB40 TEMPO 2118/2122 4000 SHRA SCT018TCU

Μετεωρολογικές αναφορές και προγνώσεις για περισσότερα από 4000 αεροδρόμια (δελτία METAR και TAF).

Οι διαθέσιμοι σταθμοί απεικονίζονται στο χάρτη με κίτρινες και κόκκινες κουκκίδες.

Μετακινήστε το ποντίκι πάνω από τις κουκκίδες για να δείτε το όνομα του σταθμού.

Στη συνέχεια, κάντε κλικ για να δείτε τις μετεωρολογικές αναφορές και τις προγνώσεις καιρού.

Για να αλλάξετε το χάρτη: κάντε κλικ στα πράσινα κουμπιά με τον μαύρο σταυρό για να ζουμάρετε, στο πράσινο κουμπί με την παύλα για να αφαιρέσετε το ζουμ ή στα πράσινα βέλη για να αντιπαραβάλλετε χάρτες.


METAR-TAF: